createdAt,value
2023-02-27T00:00:49.361Z,50.29
2023-02-27T00:01:57.551Z,50.29
2023-02-27T00:03:05.728Z,50.29
2023-02-27T00:04:14.959Z,50.29
2023-02-27T00:05:24.075Z,49.95
2023-02-27T00:06:33.252Z,50.29
2023-02-27T00:07:42.432Z,50.29
2023-02-27T00:08:51.584Z,50.29
2023-02-27T00:10:00.764Z,50.29
2023-02-27T00:11:09.936Z,50.29
2023-02-27T00:12:19.113Z,50.29
2023-02-27T00:13:28.292Z,50.29
2023-02-27T00:14:37.458Z,50.29
2023-02-27T00:15:46.639Z,50.29
2023-02-27T00:16:55.810Z,50.29
2023-02-27T00:18:03.994Z,50.29
2023-02-27T00:19:13.170Z,50.29
2023-02-27T00:20:22.349Z,49.95
2023-02-27T00:21:31.510Z,50.29
2023-02-27T00:22:40.701Z,50.29
2023-02-27T00:23:49.874Z,50.29
2023-02-27T00:24:59.034Z,50.29
2023-02-27T00:26:07.229Z,50.29
2023-02-27T00:27:15.425Z,50.29
2023-02-27T00:28:23.617Z,50.29
2023-02-27T00:29:31.792Z,50.29
2023-02-27T00:30:40.975Z,50.29
2023-02-27T00:31:50.179Z,50.29
2023-02-27T00:32:59.322Z,50.29
2023-02-27T00:34:08.494Z,50.29
2023-02-27T00:35:17.807Z,50.29
2023-02-27T00:36:26.852Z,50.29
2023-02-27T00:37:36.035Z,50.29
2023-02-27T00:38:45.189Z,50.29
2023-02-27T00:39:54.362Z,50.62
2023-02-27T00:41:03.534Z,50.29
2023-02-27T00:42:12.700Z,50.29
2023-02-27T00:43:21.880Z,50.29
2023-02-27T00:44:30.075Z,50.62
2023-02-27T00:45:39.245Z,50.29
2023-02-27T00:46:48.418Z,50.29
2023-02-27T00:47:57.591Z,50.29
2023-02-27T00:49:06.756Z,50.62
2023-02-27T00:50:15.942Z,50.29
2023-02-27T00:51:25.102Z,50.29
2023-02-27T00:52:33.310Z,50.29
2023-02-27T00:53:41.497Z,50.29
2023-02-27T00:54:50.662Z,50.29
2023-02-27T00:55:58.863Z,50.29
2023-02-27T00:57:07.057Z,50.62
2023-02-27T00:58:16.216Z,50.62
2023-02-27T00:59:25.387Z,50.29
2023-02-27T01:00:34.563Z,50.29
2023-02-27T01:01:43.745Z,50.29
2023-02-27T01:02:52.918Z,50.29
2023-02-27T01:04:02.094Z,50.29
2023-02-27T01:05:11.265Z,50.29
2023-02-27T01:06:20.446Z,50.29
2023-02-27T01:07:29.622Z,50.29
2023-02-27T01:08:38.777Z,50.29
2023-02-27T01:09:47.964Z,50.29
2023-02-27T01:10:57.144Z,50.29
2023-02-27T01:12:05.322Z,50.29
2023-02-27T01:13:14.507Z,50.29
2023-02-27T01:14:23.660Z,50.29
2023-02-27T01:15:32.837Z,50.29
2023-02-27T01:16:42.023Z,50.29
2023-02-27T01:17:51.190Z,50.29
2023-02-27T01:19:00.359Z,50.29
2023-02-27T01:20:09.544Z,50.29
2023-02-27T01:21:18.709Z,50.29
2023-02-27T01:22:27.897Z,50.29
2023-02-27T01:23:37.069Z,50.29
2023-02-27T01:24:46.237Z,50.29
2023-02-27T01:25:55.415Z,50.29
2023-02-27T01:27:03.671Z,50.29
2023-02-27T01:28:12.779Z,50.29
2023-02-27T01:29:20.970Z,50.29
2023-02-27T01:30:29.164Z,50.29
2023-02-27T01:31:38.324Z,50.29
2023-02-27T01:32:46.525Z,49.95
2023-02-27T01:33:54.714Z,50.29
2023-02-27T01:35:03.890Z,50.29
2023-02-27T01:36:13.060Z,50.29
2023-02-27T01:37:22.240Z,50.29
2023-02-27T01:38:31.411Z,50.29
2023-02-27T01:39:40.582Z,50.29
2023-02-27T01:40:49.751Z,50.29
2023-02-27T01:41:58.933Z,50.29
2023-02-27T01:43:08.094Z,50.29
2023-02-27T01:44:17.268Z,50.29
2023-02-27T01:45:26.448Z,50.29
2023-02-27T01:46:35.611Z,50.29
2023-02-27T01:47:44.812Z,50.29
2023-02-27T01:48:52.990Z,50.29
2023-02-27T01:50:02.139Z,50.29
2023-02-27T01:51:11.344Z,50.29
2023-02-27T01:52:20.512Z,50.29
2023-02-27T01:53:29.684Z,50.29
2023-02-27T01:54:38.856Z,50.29
2023-02-27T01:55:48.027Z,50.29
2023-02-27T01:56:57.299Z,50.29
2023-02-27T01:58:06.380Z,50.29
2023-02-27T01:59:15.542Z,50.29
2023-02-27T02:00:24.720Z,50.29
2023-02-27T02:01:33.896Z,50.29
2023-02-27T02:02:43.073Z,50.29
2023-02-27T02:03:51.248Z,50.29
2023-02-27T02:05:00.440Z,50.29
2023-02-27T02:06:09.600Z,50.29
2023-02-27T02:07:18.784Z,50.29
2023-02-27T02:08:27.947Z,50.29
2023-02-27T02:09:37.139Z,50.29
2023-02-27T02:10:46.302Z,50.29
2023-02-27T02:11:55.468Z,49.95
2023-02-27T02:13:04.634Z,50.29
2023-02-27T02:14:13.842Z,50.29
2023-02-27T02:15:22.992Z,50.29
2023-02-27T02:16:32.174Z,50.29
2023-02-27T02:17:41.332Z,50.29
2023-02-27T02:18:49.512Z,50.29
2023-02-27T02:19:58.690Z,50.29
2023-02-27T02:21:07.859Z,50.29
2023-02-27T02:22:17.040Z,50.29
2023-02-27T02:23:26.220Z,50.29
2023-02-27T02:24:35.392Z,50.29
2023-02-27T02:25:44.561Z,50.29
2023-02-27T02:26:53.737Z,50.29
2023-02-27T02:28:02.912Z,50.29
2023-02-27T02:29:12.082Z,50.29
2023-02-27T02:30:21.268Z,50.29
2023-02-27T02:31:30.435Z,50.29
2023-02-27T02:32:39.610Z,50.29
2023-02-27T02:34:56.962Z,50.29
2023-02-27T02:36:06.134Z,50.29
2023-02-27T02:37:15.358Z,50.29
2023-02-27T02:38:24.484Z,50.29
2023-02-27T02:39:33.668Z,50.29
2023-02-27T02:40:42.823Z,50.29
2023-02-27T02:41:52.007Z,50.29
2023-02-27T02:43:01.191Z,50.29
2023-02-27T02:44:10.348Z,50.29
2023-02-27T02:45:19.523Z,50.29
2023-02-27T02:46:28.703Z,50.29
2023-02-27T02:47:37.865Z,50.29
2023-02-27T02:48:46.061Z,50.29
2023-02-27T02:49:55.232Z,50.29
2023-02-27T02:51:04.427Z,50.29
2023-02-27T02:52:13.585Z,50.29
2023-02-27T02:53:22.755Z,50.29
2023-02-27T02:54:31.934Z,50.29
2023-02-27T02:55:41.102Z,50.29
2023-02-27T02:56:50.271Z,50.29
2023-02-27T02:57:59.459Z,50.29
2023-02-27T02:59:08.620Z,50.29
2023-02-27T03:00:17.809Z,50.29
2023-02-27T03:01:26.988Z,50.29
2023-02-27T03:02:36.153Z,50.29
2023-02-27T03:03:44.335Z,50.29
2023-02-27T03:04:53.504Z,50.29
2023-02-27T03:06:02.679Z,50.29
2023-02-27T03:08:21.019Z,50.29
2023-02-27T03:09:30.201Z,50.29
2023-02-27T03:10:39.372Z,50.29
2023-02-27T03:11:48.556Z,50.29
2023-02-27T03:12:57.718Z,50.29
2023-02-27T03:14:06.903Z,50.29
2023-02-27T03:15:16.067Z,50.29
2023-02-27T03:16:24.260Z,50.29
2023-02-27T03:17:32.455Z,50.29
2023-02-27T03:18:40.657Z,50.29
2023-02-27T03:19:49.814Z,50.29
2023-02-27T03:20:58.022Z,50.29
2023-02-27T03:22:06.213Z,50.29
2023-02-27T03:23:15.374Z,50.29
2023-02-27T03:24:24.551Z,50.29
2023-02-27T03:25:33.723Z,50.29
2023-02-27T03:26:42.888Z,50.29
2023-02-27T03:27:52.065Z,50.29
2023-02-27T03:29:01.248Z,50.29
2023-02-27T03:30:10.406Z,50.29
2023-02-27T03:31:19.591Z,50.29
2023-02-27T03:32:28.771Z,49.95
2023-02-27T03:33:37.933Z,50.29
2023-02-27T03:34:47.103Z,50.29
2023-02-27T03:35:56.271Z,50.29
2023-02-27T03:37:04.473Z,50.29
2023-02-27T03:38:13.637Z,50.29
2023-02-27T03:39:22.833Z,50.29
2023-02-27T03:40:31.980Z,50.29
2023-02-27T03:41:41.158Z,50.29
2023-02-27T03:42:50.340Z,50.29
2023-02-27T03:43:59.509Z,50.29
2023-02-27T03:45:07.736Z,50.29
2023-02-27T03:46:15.893Z,50.29
2023-02-27T03:47:25.062Z,50.29
2023-02-27T03:48:34.242Z,50.29
2023-02-27T03:49:43.420Z,49.95
2023-02-27T03:50:52.584Z,50.29
2023-02-27T03:52:01.760Z,50.29
2023-02-27T03:54:20.098Z,50.29
2023-02-27T03:55:29.281Z,50.29
2023-02-27T03:56:38.449Z,50.29
2023-02-27T03:57:47.623Z,50.29
2023-02-27T03:58:56.808Z,50.29
2023-02-27T04:00:05.972Z,50.29
2023-02-27T04:01:14.179Z,50.29
2023-02-27T04:02:23.398Z,50.29
2023-02-27T04:03:32.509Z,50.29
2023-02-27T04:04:41.681Z,50.29
2023-02-27T04:05:50.863Z,50.29
2023-02-27T04:07:00.027Z,50.29
2023-02-27T04:08:09.210Z,50.29
2023-02-27T04:09:18.379Z,50.29
2023-02-27T04:10:26.580Z,50.29
2023-02-27T04:11:34.988Z,50.29
2023-02-27T04:12:42.962Z,50.29
2023-02-27T04:13:51.160Z,50.29
2023-02-27T04:15:00.323Z,50.29
2023-02-27T04:16:09.493Z,50.29
2023-02-27T04:17:18.674Z,50.29
2023-02-27T04:18:27.841Z,50.29
2023-02-27T04:19:36.028Z,50.29
2023-02-27T04:20:44.221Z,50.29
2023-02-27T04:21:53.390Z,50.29
2023-02-27T04:23:02.570Z,50.29
2023-02-27T04:24:11.743Z,50.29
2023-02-27T04:25:20.921Z,50.29
2023-02-27T04:26:30.098Z,50.29
2023-02-27T04:27:39.265Z,50.29
2023-02-27T04:28:48.445Z,50.29
2023-02-27T04:29:57.610Z,50.62
2023-02-27T04:31:06.821Z,50.29
2023-02-27T04:32:15.954Z,50.29
2023-02-27T04:33:25.135Z,50.29
2023-02-27T04:35:43.490Z,50.29
2023-02-27T04:36:51.671Z,50.29
2023-02-27T04:39:10.027Z,50.29
2023-02-27T04:41:27.388Z,50.29
2023-02-27T04:42:35.587Z,50.29
2023-02-27T04:43:43.785Z,50.29
2023-02-27T04:44:52.955Z,50.29
2023-02-27T04:46:02.131Z,50.29
2023-02-27T04:47:11.290Z,50.29
2023-02-27T04:48:20.465Z,50.29
2023-02-27T04:49:29.648Z,50.29
2023-02-27T04:50:38.811Z,50.29
2023-02-27T04:51:47.994Z,50.29
2023-02-27T04:52:57.162Z,50.29
2023-02-27T04:54:06.350Z,50.29
2023-02-27T04:55:14.532Z,50.29
2023-02-27T04:56:22.728Z,50.29
2023-02-27T04:57:31.895Z,50.29
2023-02-27T04:58:41.070Z,50.29
2023-02-27T04:59:50.253Z,50.29
2023-02-27T05:00:59.423Z,50.29
2023-02-27T05:02:08.602Z,50.29
2023-02-27T05:03:17.759Z,50.29
2023-02-27T05:04:26.939Z,50.62
2023-02-27T05:05:36.122Z,50.29
2023-02-27T05:06:45.290Z,50.29
2023-02-27T05:07:54.454Z,49.95
2023-02-27T05:09:03.628Z,50.29
2023-02-27T05:10:12.820Z,50.29
2023-02-27T05:11:20.984Z,50.29
2023-02-27T05:12:30.174Z,50.29
2023-02-27T05:13:39.340Z,50.29
2023-02-27T05:14:48.512Z,50.29
2023-02-27T05:15:57.695Z,50.29
2023-02-27T05:17:06.862Z,50.29
2023-02-27T05:18:16.041Z,50.29
2023-02-27T05:19:24.231Z,50.29
2023-02-27T05:20:32.429Z,50.29
2023-02-27T05:21:40.616Z,50.29
2023-02-27T05:22:48.825Z,50.29
2023-02-27T05:23:57.995Z,50.29
2023-02-27T05:25:07.150Z,50.29
2023-02-27T05:26:16.323Z,50.29
2023-02-27T05:27:25.501Z,50.29
2023-02-27T05:28:34.676Z,50.29
2023-02-27T05:29:43.848Z,50.29
2023-02-27T05:30:53.019Z,50.29
2023-02-27T05:32:02.199Z,50.29
2023-02-27T05:33:11.364Z,50.29
2023-02-27T05:34:20.542Z,50.29
2023-02-27T05:35:29.712Z,50.29
2023-02-27T05:36:38.889Z,50.29
2023-02-27T05:37:48.066Z,50.29
2023-02-27T05:38:56.243Z,50.29
2023-02-27T05:40:05.425Z,50.29
2023-02-27T05:41:14.582Z,50.29
2023-02-27T05:42:23.775Z,50.29
2023-02-27T05:43:32.937Z,50.29
2023-02-27T05:44:42.117Z,50.29
2023-02-27T05:45:50.310Z,50.29
2023-02-27T05:46:58.515Z,50.29
2023-02-27T05:48:07.675Z,50.29
2023-02-27T05:49:15.863Z,50.29
2023-02-27T05:50:24.060Z,50.29
2023-02-27T05:51:33.241Z,50.29
2023-02-27T05:52:42.409Z,50.29
2023-02-27T05:53:51.585Z,50.29
2023-02-27T05:55:00.753Z,50.29
2023-02-27T05:56:09.923Z,50.29
2023-02-27T05:57:19.093Z,50.29
2023-02-27T05:58:28.280Z,50.29
2023-02-27T05:59:37.452Z,50.29
2023-02-27T06:00:46.620Z,50.29
2023-02-27T06:01:55.806Z,50.29
2023-02-27T06:03:04.978Z,50.29
2023-02-27T06:04:14.147Z,50.62
2023-02-27T06:05:22.331Z,50.29
2023-02-27T06:06:31.514Z,50.29
2023-02-27T06:07:40.690Z,50.29
2023-02-27T06:08:49.856Z,50.29
2023-02-27T06:09:59.038Z,50.29
2023-02-27T06:11:08.198Z,50.29
2023-02-27T06:12:17.603Z,50.29
2023-02-27T06:13:25.579Z,50.29
2023-02-27T06:14:33.775Z,50.29
2023-02-27T06:15:42.936Z,50.29
2023-02-27T06:16:52.102Z,50.29
2023-02-27T06:18:00.310Z,50.29
2023-02-27T06:19:08.493Z,50.29
2023-02-27T06:20:17.676Z,50.29
2023-02-27T06:22:36.046Z,50.29
2023-02-27T06:23:45.187Z,50.29
2023-02-27T06:24:54.356Z,50.29
2023-02-27T06:26:03.534Z,50.29
2023-02-27T06:27:12.716Z,50.29
2023-02-27T06:28:21.883Z,50.29
2023-02-27T06:29:31.062Z,50.29
2023-02-27T06:30:40.241Z,50.29
2023-02-27T06:31:49.396Z,50.29
2023-02-27T06:32:58.577Z,49.95
2023-02-27T06:34:06.763Z,50.29
2023-02-27T06:35:15.949Z,50.29
2023-02-27T06:36:25.086Z,50.29
2023-02-27T06:37:34.310Z,50.29
2023-02-27T06:38:43.460Z,50.29
2023-02-27T06:39:52.631Z,49.95
2023-02-27T06:41:01.804Z,50.29
2023-02-27T06:42:10.996Z,50.29
2023-02-27T06:43:19.171Z,50.29
2023-02-27T06:44:27.364Z,50.29
2023-02-27T06:45:36.540Z,50.29
2023-02-27T06:46:45.715Z,50.29
2023-02-27T06:47:54.958Z,50.29
2023-02-27T06:49:03.107Z,50.29
2023-02-27T06:50:11.259Z,50.29
2023-02-27T06:51:20.448Z,50.29
2023-02-27T06:52:29.611Z,49.95
2023-02-27T06:53:38.783Z,50.29
2023-02-27T06:54:47.963Z,49.95
2023-02-27T06:55:57.142Z,50.29
2023-02-27T06:57:06.291Z,50.29
2023-02-27T06:58:15.495Z,50.29
2023-02-27T06:59:24.654Z,50.29
2023-02-27T07:00:33.833Z,50.29
2023-02-27T07:01:43.004Z,50.29
2023-02-27T07:02:52.178Z,50.29
2023-02-27T07:04:01.362Z,50.29
2023-02-27T07:05:09.538Z,50.29
2023-02-27T07:06:18.719Z,50.29
2023-02-27T07:07:26.903Z,50.29
2023-02-27T07:08:36.085Z,50.29
2023-02-27T07:09:45.269Z,50.29
2023-02-27T07:10:54.425Z,50.29
2023-02-27T07:12:03.610Z,50.29
2023-02-27T07:13:11.797Z,50.29
2023-02-27T07:14:19.981Z,50.29
2023-02-27T07:15:28.182Z,50.29
2023-02-27T07:16:36.371Z,50.29
2023-02-27T07:17:45.537Z,50.29
2023-02-27T07:18:54.718Z,49.95
2023-02-27T07:20:03.906Z,50.29
2023-02-27T07:21:13.068Z,50.29
2023-02-27T07:22:22.243Z,50.29
2023-02-27T07:23:31.422Z,50.29
2023-02-27T07:24:40.589Z,50.29
2023-02-27T07:25:49.751Z,50.29
2023-02-27T07:26:58.936Z,49.95
2023-02-27T07:28:08.105Z,50.29
2023-02-27T07:29:17.275Z,50.29
2023-02-27T07:30:26.463Z,50.29
2023-02-27T07:31:34.677Z,50.29
2023-02-27T07:32:43.835Z,50.29
2023-02-27T07:33:53.020Z,50.29
2023-02-27T07:35:02.165Z,50.29
2023-02-27T07:37:20.506Z,50.29
2023-02-27T07:38:29.681Z,50.29
2023-02-27T07:39:38.862Z,50.29
2023-02-27T07:40:47.056Z,50.29
2023-02-27T07:41:56.227Z,50.29
2023-02-27T07:43:04.412Z,50.29
2023-02-27T07:44:13.575Z,50.29
2023-02-27T07:45:22.890Z,50.29
2023-02-27T07:46:30.958Z,50.29
2023-02-27T07:47:40.119Z,50.29
2023-02-27T07:48:48.349Z,50.29
2023-02-27T07:49:57.541Z,50.29
2023-02-27T07:51:06.667Z,50.29
2023-02-27T07:52:15.850Z,50.29
2023-02-27T07:53:25.136Z,50.29
2023-02-27T07:54:34.300Z,50.29
2023-02-27T07:55:43.457Z,50.29
2023-02-27T07:56:52.633Z,50.29
2023-02-27T07:58:01.731Z,50.29
2023-02-27T07:59:10.887Z,50.29
2023-02-27T08:00:20.051Z,49.95
2023-02-27T08:01:29.417Z,49.95
2023-02-27T08:02:38.455Z,50.29
2023-02-27T08:03:46.718Z,50.29
2023-02-27T08:04:55.840Z,50.29
2023-02-27T08:06:04.945Z,50.29
2023-02-27T08:08:23.353Z,50.29
2023-02-27T08:09:32.441Z,50.29
2023-02-27T08:10:41.624Z,50.29
2023-02-27T08:11:49.826Z,50.29
2023-02-27T08:12:57.997Z,50.29
2023-02-27T08:14:07.169Z,50.29
2023-02-27T08:15:16.343Z,50.29
2023-02-27T08:16:25.529Z,50.29
2023-02-27T08:17:34.695Z,50.29
2023-02-27T08:18:43.866Z,50.29
2023-02-27T08:19:53.037Z,50.29
2023-02-27T08:21:02.215Z,49.62
2023-02-27T08:23:20.689Z,50.29
2023-02-27T08:24:29.738Z,50.29
2023-02-27T08:25:38.950Z,50.29
2023-02-27T08:26:48.054Z,50.29
2023-02-27T08:29:05.445Z,50.29
2023-02-27T08:30:13.642Z,50.29
2023-02-27T08:31:21.814Z,50.29
2023-02-27T08:32:30.003Z,50.29
2023-02-27T08:34:47.367Z,50.29
2023-02-27T08:35:56.555Z,49.95
2023-02-27T08:37:05.730Z,50.62
2023-02-27T08:38:14.914Z,50.29
2023-02-27T08:39:24.068Z,50.29
2023-02-27T08:40:33.246Z,50.29
2023-02-27T08:41:42.406Z,50.29
2023-02-27T08:42:51.599Z,50.29
2023-02-27T08:44:00.758Z,50.29
2023-02-27T08:45:09.909Z,50.29
2023-02-27T08:46:18.122Z,50.29
2023-02-27T08:47:26.307Z,50.29
2023-02-27T08:48:35.485Z,50.29
2023-02-27T08:49:44.653Z,50.29
2023-02-27T08:50:53.822Z,50.29
2023-02-27T08:52:03.001Z,50.29
2023-02-27T08:53:12.153Z,50.29
2023-02-27T08:54:21.339Z,50.29
2023-02-27T08:55:30.515Z,49.62
2023-02-27T08:56:39.681Z,50.29
2023-02-27T08:57:48.864Z,50.62
2023-02-27T08:58:58.012Z,50.29
2023-02-27T09:00:07.195Z,49.95
2023-02-27T09:01:16.375Z,50.29
2023-02-27T09:02:24.556Z,48.61
2023-02-27T09:03:33.736Z,50.29
2023-02-27T09:04:42.908Z,50.29
2023-02-27T09:05:52.085Z,50.29
2023-02-27T09:07:01.301Z,48.94
2023-02-27T09:08:10.443Z,49.28
2023-02-27T09:09:19.640Z,50.29
2023-02-27T09:10:27.801Z,50.29
2023-02-27T09:11:36.029Z,49.62
2023-02-27T09:12:45.147Z,50.29
2023-02-27T09:13:53.351Z,49.62
2023-02-27T09:15:01.584Z,49.28
2023-02-27T09:16:10.698Z,48.94
2023-02-27T09:18:29.052Z,50.29
2023-02-27T09:19:38.236Z,49.95
2023-02-27T09:20:47.473Z,50.29
2023-02-27T09:21:56.563Z,49.95
2023-02-27T09:23:05.790Z,49.62
2023-02-27T09:24:14.907Z,49.28
2023-02-27T09:25:24.092Z,49.62
2023-02-27T09:26:33.256Z,50.29
2023-02-27T09:27:42.433Z,50.29
2023-02-27T09:28:51.609Z,50.29
2023-02-27T09:29:59.857Z,50.29
2023-02-27T09:31:08.968Z,50.29
2023-02-27T09:32:18.196Z,48.61
2023-02-27T09:33:27.304Z,48.94
2023-02-27T09:34:36.500Z,48.94
2023-02-27T09:35:45.699Z,49.95
2023-02-27T09:36:54.833Z,49.28
2023-02-27T09:38:04.002Z,48.61
2023-02-27T09:39:13.171Z,49.62
2023-02-27T09:40:21.380Z,49.28
2023-02-27T09:41:29.579Z,50.29
2023-02-27T09:42:38.875Z,49.62
2023-02-27T09:44:57.077Z,49.28
2023-02-27T09:46:05.268Z,50.29
2023-02-27T09:47:13.448Z,49.62
2023-02-27T09:48:22.630Z,49.95
2023-02-27T09:49:31.793Z,50.62
2023-02-27T09:50:41.024Z,50.29
2023-02-27T09:51:50.140Z,50.29
2023-02-27T09:52:59.320Z,50.29
2023-02-27T09:54:08.492Z,50.29
2023-02-27T09:55:17.677Z,49.28
2023-02-27T09:56:26.825Z,49.62
2023-02-27T09:57:36.004Z,49.28
2023-02-27T09:58:45.191Z,50.29
2023-02-27T09:59:54.369Z,49.95
2023-02-27T10:01:03.532Z,50.29
2023-02-27T10:02:11.721Z,50.29
2023-02-27T10:03:20.892Z,49.62
2023-02-27T10:04:30.079Z,49.28
2023-02-27T10:05:39.492Z,49.95
2023-02-27T10:06:48.434Z,49.62
2023-02-27T10:07:57.580Z,49.95
2023-02-27T10:09:06.759Z,48.94
2023-02-27T10:10:14.939Z,49.95
2023-02-27T10:11:23.148Z,48.94
2023-02-27T10:12:31.336Z,49.95
2023-02-27T10:13:39.584Z,47.94
2023-02-27T10:14:48.697Z,48.61
2023-02-27T10:15:57.925Z,50.29
2023-02-27T10:17:07.044Z,50.29
2023-02-27T10:18:16.199Z,49.95
2023-02-27T10:19:25.388Z,50.29
2023-02-27T10:20:34.560Z,50.29
2023-02-27T10:21:43.741Z,50.29
2023-02-27T10:22:52.892Z,49.28
2023-02-27T10:24:02.137Z,49.28
2023-02-27T10:25:11.240Z,48.94
2023-02-27T10:27:29.585Z,49.95
2023-02-27T10:28:38.863Z,50.29
2023-02-27T10:29:46.969Z,49.28
2023-02-27T10:30:56.174Z,49.28
2023-02-27T10:32:05.290Z,50.29
2023-02-27T10:33:14.459Z,50.29
2023-02-27T10:34:23.658Z,50.29
2023-02-27T10:35:32.933Z,48.61
2023-02-27T10:36:42.038Z,49.28
2023-02-27T10:37:50.273Z,48.94
2023-02-27T10:38:58.775Z,50.29
2023-02-27T10:40:07.535Z,49.62
2023-02-27T10:41:16.771Z,49.28
2023-02-27T10:42:25.874Z,49.28
2023-02-27T10:43:35.060Z,49.62
2023-02-27T10:44:44.224Z,49.28
2023-02-27T10:45:53.382Z,49.28
2023-02-27T10:47:02.569Z,50.29
2023-02-27T10:48:11.906Z,49.28
2023-02-27T10:49:19.930Z,48.27
2023-02-27T10:50:28.116Z,50.29
2023-02-27T10:51:37.283Z,48.94
2023-02-27T10:52:46.462Z,49.62
2023-02-27T10:53:55.700Z,49.62
2023-02-27T10:55:04.808Z,50.29
2023-02-27T10:56:14.005Z,48.94
2023-02-27T10:57:23.148Z,49.62
2023-02-27T10:58:31.335Z,49.28
2023-02-27T10:59:40.519Z,48.61
2023-02-27T11:00:49.680Z,49.62
2023-02-27T11:01:58.908Z,48.27
2023-02-27T11:03:08.043Z,48.94
2023-02-27T11:04:17.200Z,47.6
2023-02-27T11:05:26.509Z,48.27
2023-02-27T11:06:35.555Z,48.61
2023-02-27T11:07:44.712Z,47.94
2023-02-27T11:08:53.892Z,47.94
2023-02-27T11:10:03.077Z,49.95
2023-02-27T11:11:12.246Z,48.61
2023-02-27T11:12:21.473Z,48.61
2023-02-27T11:13:29.590Z,49.62
2023-02-27T11:14:37.789Z,49.62
2023-02-27T11:15:46.961Z,50.29
2023-02-27T11:16:55.163Z,49.62
2023-02-27T11:18:03.335Z,50.29
2023-02-27T11:20:21.696Z,49.95
2023-02-27T11:21:30.859Z,50.29
2023-02-27T11:22:40.037Z,47.94
2023-02-27T11:23:49.216Z,50.29
2023-02-27T11:24:58.388Z,48.61
2023-02-27T11:26:07.545Z,47.6
2023-02-27T11:27:16.717Z,50.29
2023-02-27T11:28:25.882Z,49.95
2023-02-27T11:29:35.122Z,49.62
2023-02-27T11:30:44.252Z,49.95
2023-02-27T11:31:53.424Z,49.28
2023-02-27T11:33:01.604Z,48.27
2023-02-27T11:34:10.866Z,50.29
2023-02-27T11:35:19.939Z,49.28
2023-02-27T11:36:29.118Z,49.95
2023-02-27T11:37:38.304Z,49.95
2023-02-27T11:38:47.456Z,49.28
2023-02-27T11:39:56.652Z,48.94
2023-02-27T11:41:05.813Z,49.28
2023-02-27T11:42:14.983Z,48.94
2023-02-27T11:43:24.160Z,48.94
2023-02-27T11:44:33.344Z,48.61
2023-02-27T11:45:42.498Z,49.62
2023-02-27T11:46:51.669Z,48.27
2023-02-27T11:47:59.871Z,49.95
2023-02-27T11:49:09.029Z,49.95
2023-02-27T11:50:18.206Z,47.94
2023-02-27T11:51:27.537Z,49.62
2023-02-27T11:52:36.554Z,49.95
2023-02-27T11:53:45.737Z,49.95
2023-02-27T11:54:54.895Z,48.94
2023-02-27T11:56:04.064Z,48.94
2023-02-27T11:57:13.228Z,46.93
2023-02-27T11:58:22.444Z,49.28
2023-02-27T11:59:31.592Z,49.95
2023-02-27T12:00:40.759Z,49.28
2023-02-27T12:01:49.930Z,49.62
2023-02-27T12:02:58.122Z,49.28
2023-02-27T12:04:07.305Z,48.61
2023-02-27T12:05:16.458Z,48.61
2023-02-27T12:06:25.633Z,48.94
2023-02-27T12:07:34.815Z,48.94
2023-02-27T12:08:43.995Z,49.28
2023-02-27T12:09:53.163Z,49.62
2023-02-27T12:11:02.322Z,49.62
2023-02-27T12:12:11.494Z,48.94
2023-02-27T12:13:20.685Z,49.62
2023-02-27T12:14:30.030Z,48.94
2023-02-27T12:15:39.027Z,49.62
2023-02-27T12:16:48.181Z,49.28
2023-02-27T12:17:56.374Z,49.28
2023-02-27T12:19:05.575Z,48.94
2023-02-27T12:20:14.717Z,48.61
2023-02-27T12:21:23.898Z,48.94
2023-02-27T12:22:33.140Z,48.94
2023-02-27T12:23:42.299Z,49.28
2023-02-27T12:24:50.418Z,47.94
2023-02-27T12:25:58.611Z,48.27
2023-02-27T12:27:07.794Z,48.94
2023-02-27T12:28:15.973Z,50.29
2023-02-27T12:31:42.601Z,48.94
2023-02-27T12:32:51.682Z,48.61
2023-02-27T12:35:10.160Z,49.95
2023-02-27T12:37:28.378Z,49.62
2023-02-27T12:38:37.590Z,49.28
2023-02-27T12:39:46.709Z,49.62
2023-02-27T12:40:55.893Z,49.95
2023-02-27T12:42:05.068Z,48.27
2023-02-27T12:43:14.266Z,50.29
2023-02-27T12:44:22.416Z,49.28
2023-02-27T12:45:30.636Z,47.94
2023-02-27T12:46:38.796Z,50.29
2023-02-27T12:47:48.117Z,49.62
2023-02-27T12:48:57.143Z,48.61
2023-02-27T12:50:06.323Z,47.6
2023-02-27T12:51:15.524Z,48.61
2023-02-27T12:52:24.719Z,47.27
2023-02-27T12:53:33.850Z,48.27
2023-02-27T12:54:43.043Z,47.6
2023-02-27T12:55:52.171Z,48.61
2023-02-27T12:58:10.518Z,50.29
2023-02-27T12:59:19.750Z,48.61
2023-02-27T13:00:28.870Z,48.27
2023-02-27T13:01:37.113Z,49.62
2023-02-27T13:02:46.225Z,48.61
2023-02-27T13:03:55.406Z,47.6
2023-02-27T13:05:04.579Z,49.28
2023-02-27T13:06:13.735Z,49.28
2023-02-27T13:07:23.176Z,49.28
2023-02-27T13:08:32.107Z,50.29
2023-02-27T13:09:41.264Z,47.27
2023-02-27T13:10:49.472Z,48.94
2023-02-27T13:11:57.634Z,48.94
2023-02-27T13:13:06.825Z,48.27
2023-02-27T13:14:15.982Z,48.27
2023-02-27T13:15:25.168Z,47.94
2023-02-27T13:16:34.338Z,49.28
2023-02-27T13:17:43.499Z,49.95
2023-02-27T13:18:52.691Z,48.61
2023-02-27T13:20:01.864Z,49.95
2023-02-27T13:21:11.037Z,48.61
2023-02-27T13:22:20.205Z,48.27
2023-02-27T13:23:29.372Z,47.94
2023-02-27T13:24:38.532Z,46.26
2023-02-27T13:25:47.714Z,50.29
2023-02-27T13:26:55.913Z,49.95
2023-02-27T13:28:05.077Z,47.6
2023-02-27T13:29:14.340Z,48.94
2023-02-27T13:30:23.418Z,49.62
2023-02-27T13:31:32.581Z,48.61
2023-02-27T13:33:50.926Z,48.27
2023-02-27T13:35:00.120Z,48.94
2023-02-27T13:36:08.309Z,49.28
2023-02-27T13:37:16.491Z,49.95
2023-02-27T13:38:24.700Z,49.62
2023-02-27T13:39:33.847Z,49.28
2023-02-27T13:40:42.041Z,48.94
2023-02-27T13:41:51.310Z,50.29
2023-02-27T13:43:00.393Z,49.28
2023-02-27T13:44:09.578Z,49.95
2023-02-27T13:45:18.820Z,50.29
2023-02-27T13:46:27.942Z,49.28
2023-02-27T13:47:37.113Z,49.28
2023-02-27T13:48:46.264Z,49.95
2023-02-27T13:49:55.431Z,49.28
2023-02-27T13:51:04.634Z,49.28
2023-02-27T13:52:13.773Z,49.95
2023-02-27T13:53:22.940Z,49.28
2023-02-27T13:54:32.177Z,49.62
2023-02-27T13:55:40.296Z,48.94
2023-02-27T13:56:49.495Z,48.94
2023-02-27T13:57:58.640Z,49.28
2023-02-27T13:59:07.947Z,49.28
2023-02-27T14:00:16.990Z,49.95
2023-02-27T14:01:26.177Z,49.28
2023-02-27T14:02:34.361Z,48.61
2023-02-27T14:03:42.572Z,48.61
2023-02-27T14:04:51.786Z,47.6
2023-02-27T14:06:00.912Z,48.27
2023-02-27T14:08:19.254Z,48.61
2023-02-27T14:09:27.438Z,49.28
2023-02-27T14:10:35.672Z,49.28
2023-02-27T14:11:44.785Z,49.95
2023-02-27T14:12:53.968Z,49.62
2023-02-27T14:14:03.161Z,49.95
2023-02-27T14:15:12.302Z,48.61
2023-02-27T14:16:21.468Z,49.28
2023-02-27T14:17:30.640Z,49.28
2023-02-27T14:18:39.824Z,47.27
2023-02-27T14:19:49.018Z,49.95
2023-02-27T14:20:58.164Z,48.94
2023-02-27T14:22:07.341Z,49.95
2023-02-27T14:23:16.584Z,50.29
2023-02-27T14:24:25.683Z,49.62
2023-02-27T14:25:33.893Z,48.61
2023-02-27T14:26:43.057Z,49.95
2023-02-27T14:27:52.217Z,49.95
2023-02-27T14:29:01.480Z,49.28
2023-02-27T14:30:10.565Z,48.61
2023-02-27T14:31:19.743Z,49.62
2023-02-27T14:32:28.901Z,50.29
2023-02-27T14:33:37.117Z,50.29
2023-02-27T14:35:54.460Z,49.62
2023-02-27T14:37:03.652Z,49.62
2023-02-27T14:38:12.827Z,47.94
2023-02-27T14:39:21.013Z,47.6
2023-02-27T14:41:38.358Z,48.27
2023-02-27T14:42:47.521Z,48.61
2023-02-27T14:43:56.701Z,49.95
2023-02-27T14:45:06.240Z,49.62
2023-02-27T14:46:15.052Z,48.61
2023-02-27T14:47:24.213Z,48.94
2023-02-27T14:48:33.400Z,47.94
2023-02-27T14:49:41.590Z,49.62
2023-02-27T14:50:50.764Z,49.62
2023-02-27T14:51:59.969Z,49.95
2023-02-27T14:53:09.116Z,48.94
2023-02-27T14:54:18.301Z,49.62
2023-02-27T14:55:27.450Z,49.95
2023-02-27T14:56:36.637Z,47.94
2023-02-27T14:57:45.794Z,47.94
2023-02-27T14:58:54.964Z,48.27
2023-02-27T15:00:04.133Z,48.27
2023-02-27T15:01:13.326Z,49.95
2023-02-27T15:02:22.507Z,47.27
2023-02-27T15:03:31.699Z,49.28
2023-02-27T15:05:49.038Z,49.62
2023-02-27T15:06:57.230Z,49.62
2023-02-27T15:08:05.405Z,49.28
2023-02-27T15:09:14.583Z,48.27
2023-02-27T15:10:23.756Z,48.61
2023-02-27T15:11:32.936Z,46.6
2023-02-27T15:12:42.092Z,49.28
2023-02-27T15:13:51.269Z,48.61
2023-02-27T15:14:59.467Z,48.94
2023-02-27T15:16:07.642Z,49.62
2023-02-27T15:17:16.821Z,49.28
2023-02-27T15:18:26.002Z,49.95